createdAt,value
2022-10-28T00:01:16.088Z,4.60
2022-10-28T00:03:45.355Z,4.82
2022-10-28T00:06:15.153Z,5.30
2022-10-28T00:08:42.607Z,5.57
2022-10-28T00:11:11.970Z,5.38
2022-10-28T00:13:39.467Z,5.38
2022-10-28T00:16:14.474Z,4.95
2022-10-28T00:18:41.979Z,4.70
2022-10-28T00:21:18.144Z,4.40
2022-10-28T00:23:45.627Z,4.90
2022-10-28T00:26:17.880Z,5.20
2022-10-28T00:28:58.179Z,5.13
2022-10-28T00:31:26.920Z,4.50
2022-10-28T00:33:55.677Z,4.75
2022-10-28T00:36:25.363Z,4.82
2022-10-28T00:38:54.824Z,4.70
2022-10-28T00:41:29.046Z,4.35
2022-10-28T00:43:57.962Z,4.28
2022-10-28T00:46:41.730Z,4.28
2022-10-28T00:49:30.226Z,4.30
2022-10-28T00:52:10.587Z,3.70
2022-10-28T00:54:37.915Z,3.50
2022-10-28T00:57:06.436Z,3.47
2022-10-28T00:59:35.196Z,3.00
2022-10-28T01:02:02.596Z,3.35
2022-10-28T01:04:29.984Z,3.22
2022-10-28T01:06:57.663Z,3.20
2022-10-28T01:12:23.497Z,3.30
2022-10-28T01:15:28.736Z,2.60
2022-10-28T01:18:38.745Z,2.70
2022-10-28T01:21:49.436Z,2.92
2022-10-28T01:24:38.686Z,2.40
2022-10-28T01:27:17.483Z,3.10
2022-10-28T01:30:06.746Z,3.28
2022-10-28T01:32:56.051Z,2.97
2022-10-28T01:35:45.713Z,2.83
2022-10-28T01:38:25.161Z,4.97
2022-10-28T01:41:15.712Z,3.00
2022-10-28T01:43:54.480Z,2.70
2022-10-28T01:46:42.017Z,2.88
2022-10-28T01:49:43.408Z,3.45
2022-10-28T01:52:13.025Z,2.80
2022-10-28T01:54:41.259Z,2.70
2022-10-28T01:57:08.681Z,2.95
2022-10-28T01:59:36.021Z,3.33
2022-10-28T02:04:35.534Z,3.35
2022-10-28T02:07:02.875Z,3.28
2022-10-28T02:09:52.189Z,3.08
2022-10-28T02:12:22.268Z,2.93
2022-10-28T02:15:12.898Z,4.07
2022-10-28T02:18:05.439Z,3.65
2022-10-28T02:20:57.354Z,3.42
2022-10-28T02:23:27.467Z,3.30
2022-10-28T02:25:58.937Z,3.55
2022-10-28T02:28:37.431Z,3.05
2022-10-28T02:31:13.395Z,3.20
2022-10-28T02:33:40.743Z,3.05
2022-10-28T02:36:13.130Z,3.72
2022-10-28T02:38:44.204Z,2.90
2022-10-28T02:41:27.573Z,3.20
2022-10-28T02:44:02.137Z,3.13
2022-10-28T02:46:29.903Z,3.67
2022-10-28T02:49:03.303Z,3.40
2022-10-28T02:51:35.058Z,3.53
2022-10-28T02:54:16.273Z,3.53
2022-10-28T02:57:04.099Z,3.13
2022-10-28T02:59:31.440Z,3.13
2022-10-28T03:01:58.904Z,2.97
2022-10-28T03:04:26.338Z,2.92
2022-10-28T03:06:53.728Z,4.38
2022-10-28T03:09:21.018Z,3.50
2022-10-28T03:11:48.330Z,3.53
2022-10-28T03:14:15.617Z,3.50
2022-10-28T03:16:43.070Z,3.17
2022-10-28T03:19:10.403Z,4.28
2022-10-28T03:21:37.673Z,2.88
2022-10-28T03:24:05.189Z,3.40
2022-10-28T03:26:32.566Z,2.90
2022-10-28T03:28:59.884Z,2.85
2022-10-28T03:31:27.279Z,2.70
2022-10-28T03:33:54.718Z,3.30
2022-10-28T03:36:22.018Z,3.08
2022-10-28T03:38:49.422Z,2.67
2022-10-28T03:41:16.734Z,2.70
2022-10-28T03:43:44.347Z,2.80
2022-10-28T03:46:11.656Z,2.67
2022-10-28T03:48:38.963Z,2.67
2022-10-28T03:51:06.495Z,2.70
2022-10-28T03:53:33.855Z,2.72
2022-10-28T03:56:01.598Z,2.55
2022-10-28T03:58:29.079Z,2.95
2022-10-28T04:00:56.698Z,3.22
2022-10-28T04:03:24.705Z,3.53
2022-10-28T04:05:52.088Z,2.47
2022-10-28T04:08:19.530Z,2.60
2022-10-28T04:10:47.599Z,2.80
2022-10-28T04:13:15.380Z,2.65
2022-10-28T04:15:42.759Z,2.58
2022-10-28T04:18:10.533Z,2.63
2022-10-28T04:20:37.915Z,2.60
2022-10-28T04:23:05.270Z,2.47
2022-10-28T04:25:32.582Z,2.60
2022-10-28T04:27:59.951Z,2.60
2022-10-28T04:30:27.383Z,2.55
2022-10-28T04:32:54.765Z,2.67
2022-10-28T04:35:22.169Z,2.70
2022-10-28T04:37:49.456Z,3.42
2022-10-28T04:40:16.823Z,2.90
2022-10-28T04:42:44.090Z,2.80
2022-10-28T04:45:11.572Z,2.53
2022-10-28T04:47:38.915Z,2.55
2022-10-28T04:50:06.639Z,2.67
2022-10-28T04:52:33.924Z,2.97
2022-10-28T04:55:01.236Z,3.00
2022-10-28T04:57:28.577Z,3.08
2022-10-28T04:59:55.868Z,3.58
2022-10-28T05:02:23.595Z,3.00
2022-10-28T05:04:51.018Z,2.53
2022-10-28T05:07:21.228Z,3.00
2022-10-28T05:09:50.835Z,3.25
2022-10-28T05:12:18.178Z,2.78
2022-10-28T05:14:47.212Z,3.45
2022-10-28T05:17:16.209Z,2.60
2022-10-28T05:19:45.276Z,2.95
2022-10-28T05:22:12.577Z,3.60
2022-10-28T05:24:39.896Z,3.22
2022-10-28T05:27:07.260Z,3.25
2022-10-28T05:29:34.555Z,3.53
2022-10-28T05:32:01.979Z,3.55
2022-10-28T05:34:29.365Z,4.00
2022-10-28T05:36:56.671Z,4.50
2022-10-28T05:39:24.021Z,4.20
2022-10-28T05:41:51.364Z,4.15
2022-10-28T05:44:18.713Z,3.10
2022-10-28T05:46:46.046Z,3.35
2022-10-28T05:49:13.393Z,2.97
2022-10-28T05:51:40.694Z,3.08
2022-10-28T05:54:08.135Z,3.33
2022-10-28T05:56:35.520Z,3.55
2022-10-28T05:59:02.914Z,4.00
2022-10-28T06:01:30.295Z,3.22
2022-10-28T06:03:57.670Z,3.60
2022-10-28T06:06:25.200Z,3.22
2022-10-28T06:08:52.517Z,3.58
2022-10-28T06:11:18.316Z,3.47
2022-10-28T06:13:46.196Z,3.20
2022-10-28T06:16:13.535Z,3.78
2022-10-28T06:18:40.903Z,3.17
2022-10-28T06:21:08.232Z,3.00
2022-10-28T06:23:35.572Z,2.63
2022-10-28T06:26:04.064Z,2.78
2022-10-28T06:28:31.524Z,3.15
2022-10-28T06:31:03.018Z,3.30
2022-10-28T06:33:31.684Z,3.30
2022-10-28T06:35:59.046Z,3.53
2022-10-28T06:38:26.899Z,3.47
2022-10-28T06:40:56.382Z,3.13
2022-10-28T06:43:23.799Z,3.22
2022-10-28T06:45:55.114Z,3.15
2022-10-28T06:48:24.118Z,3.33
2022-10-28T06:50:51.457Z,3.17
2022-10-28T06:53:21.560Z,4.32
2022-10-28T06:56:07.269Z,5.00
2022-10-28T06:58:34.638Z,3.60
2022-10-28T07:01:05.718Z,3.78
2022-10-28T07:03:33.127Z,4.25
2022-10-28T07:06:00.692Z,3.63
2022-10-28T07:08:28.201Z,3.42
2022-10-28T07:10:58.888Z,5.07
2022-10-28T07:13:26.352Z,4.07
2022-10-28T07:15:55.104Z,4.40
2022-10-28T07:18:22.675Z,4.15
2022-10-28T07:20:50.047Z,4.57
2022-10-28T07:23:17.444Z,4.07
2022-10-28T07:25:51.058Z,4.00
2022-10-28T07:28:18.409Z,4.40
2022-10-28T07:30:45.727Z,4.95
2022-10-28T07:33:13.129Z,4.85
2022-10-28T07:35:40.502Z,4.07
2022-10-28T07:38:07.782Z,4.22
2022-10-28T07:40:35.105Z,4.75
2022-10-28T07:43:02.360Z,4.72
2022-10-28T07:45:29.668Z,6.50
2022-10-28T07:47:56.991Z,8.00
2022-10-28T07:50:24.343Z,6.57
2022-10-28T07:52:51.879Z,5.65
2022-10-28T07:55:21.487Z,5.97
2022-10-28T07:57:48.887Z,5.72
2022-10-28T08:00:16.351Z,5.03
2022-10-28T08:02:43.684Z,5.03
2022-10-28T08:05:11.024Z,5.13
2022-10-28T08:07:38.969Z,3.90
2022-10-28T08:10:06.990Z,3.83
2022-10-28T08:12:34.425Z,3.25
2022-10-28T08:15:02.681Z,3.17
2022-10-28T08:17:30.164Z,3.95
2022-10-28T08:19:57.553Z,3.15
2022-10-28T08:22:24.952Z,3.30
2022-10-28T08:24:52.254Z,3.10
2022-10-28T08:27:19.528Z,2.67
2022-10-28T08:29:46.821Z,2.95
2022-10-28T08:32:14.110Z,3.22
2022-10-28T08:34:43.611Z,2.83
2022-10-28T08:37:11.304Z,3.10
2022-10-28T08:39:38.727Z,2.88
2022-10-28T08:42:27.234Z,2.33
2022-10-28T08:45:24.040Z,3.10
2022-10-28T08:48:25.538Z,2.50
2022-10-28T08:50:54.962Z,2.30
2022-10-28T08:53:35.093Z,3.05
2022-10-28T08:56:14.562Z,2.70
2022-10-28T08:58:43.901Z,2.92
2022-10-28T09:01:20.380Z,3.72
2022-10-28T09:03:50.329Z,3.40
2022-10-28T09:06:17.621Z,2.95
2022-10-28T09:08:48.819Z,3.58
2022-10-28T09:11:43.195Z,3.22
2022-10-28T09:14:35.373Z,3.08
2022-10-28T09:17:21.610Z,3.20
2022-10-28T09:20:19.523Z,3.17
2022-10-28T09:22:57.238Z,3.10
2022-10-28T09:25:27.757Z,2.72
2022-10-28T09:27:58.565Z,2.90
2022-10-28T09:30:42.723Z,2.65
2022-10-28T09:33:22.010Z,3.38
2022-10-28T09:35:49.413Z,3.33
2022-10-28T09:38:25.666Z,3.30
2022-10-28T09:41:07.207Z,3.30
2022-10-28T09:43:36.031Z,4.25
2022-10-28T09:46:08.786Z,2.85
2022-10-28T09:48:38.000Z,2.58
2022-10-28T09:51:05.780Z,2.38
2022-10-28T09:53:44.068Z,2.17
2022-10-28T09:56:11.382Z,2.13
2022-10-28T09:58:39.641Z,2.50
2022-10-28T10:01:06.985Z,2.22
2022-10-28T10:03:34.277Z,2.30
2022-10-28T10:06:08.182Z,2.60
2022-10-28T10:08:37.450Z,2.70
2022-10-28T10:11:06.230Z,2.22
2022-10-28T10:13:38.817Z,2.38
2022-10-28T10:16:18.032Z,2.40
2022-10-28T10:18:48.515Z,2.15
2022-10-28T10:21:16.665Z,2.20
2022-10-28T10:23:43.985Z,2.58
2022-10-28T10:26:16.013Z,2.22
2022-10-28T10:28:50.557Z,2.30
2022-10-28T10:33:50.698Z,2.13
2022-10-28T10:36:21.052Z,2.10
2022-10-28T10:38:54.071Z,2.20
2022-10-28T10:41:40.413Z,2.40
2022-10-28T10:44:23.139Z,2.45
2022-10-28T10:47:03.471Z,2.10
2022-10-28T10:49:39.989Z,1.67
2022-10-28T10:52:19.240Z,1.75
2022-10-28T10:54:58.728Z,1.38
2022-10-28T10:57:26.367Z,1.50
2022-10-28T10:59:54.421Z,2.15
2022-10-28T11:02:32.538Z,1.50
2022-10-28T11:05:02.009Z,1.63
2022-10-28T11:07:29.799Z,1.75
2022-10-28T11:09:57.142Z,2.30
2022-10-28T11:12:28.537Z,2.38
2022-10-28T11:15:00.441Z,2.05
2022-10-28T11:17:36.840Z,2.78
2022-10-28T11:20:26.079Z,2.60
2022-10-28T11:23:23.949Z,3.00
2022-10-28T11:25:54.963Z,2.75
2022-10-28T11:28:27.988Z,2.17
2022-10-28T11:31:22.783Z,1.98
2022-10-28T11:33:57.250Z,2.00
2022-10-28T11:36:34.698Z,1.80
2022-10-28T11:39:17.123Z,1.77
2022-10-28T11:41:57.241Z,1.92
2022-10-28T11:44:49.548Z,2.90
2022-10-28T11:47:29.788Z,2.83
2022-10-28T11:50:04.215Z,2.88
2022-10-28T11:55:01.878Z,2.67
2022-10-28T11:57:58.115Z,3.17
2022-10-28T12:00:52.666Z,3.05
2022-10-28T12:03:22.973Z,2.90
2022-10-28T12:06:09.900Z,3.10
2022-10-28T12:08:56.216Z,2.50
2022-10-28T12:11:48.068Z,1.88
2022-10-28T12:14:31.924Z,3.13
2022-10-28T12:17:12.872Z,2.63
2022-10-28T12:19:58.734Z,2.42
2022-10-28T12:22:52.768Z,2.22
2022-10-28T12:25:25.778Z,1.92
2022-10-28T12:27:56.181Z,2.25
2022-10-28T12:30:33.635Z,4.97
2022-10-28T12:33:25.900Z,2.67
2022-10-28T12:36:18.050Z,2.38
2022-10-28T12:38:46.386Z,2.30
2022-10-28T12:41:27.768Z,2.20
2022-10-28T12:44:08.026Z,2.22
2022-10-28T12:46:53.481Z,1.85
2022-10-28T12:49:42.524Z,2.20
2022-10-28T12:52:34.622Z,1.52
2022-10-28T12:57:44.141Z,2.10
2022-10-28T13:00:19.732Z,2.28
2022-10-28T13:03:09.586Z,2.30
2022-10-28T13:05:41.692Z,1.75
2022-10-28T13:08:33.842Z,1.90
2022-10-28T13:11:19.627Z,3.05
2022-10-28T13:13:53.557Z,3.00
2022-10-28T13:17:12.182Z,2.92
2022-10-28T13:20:15.697Z,3.30
2022-10-28T13:23:04.222Z,1.70
2022-10-28T13:25:54.121Z,1.70
2022-10-28T13:28:24.126Z,1.90
2022-10-28T13:30:56.219Z,2.28
2022-10-28T13:33:27.978Z,2.10
2022-10-28T13:36:07.877Z,1.80
2022-10-28T13:38:35.227Z,2.35
2022-10-28T13:41:02.563Z,1.83
2022-10-28T13:43:48.821Z,1.85
2022-10-28T13:46:53.583Z,2.20
2022-10-28T13:49:25.053Z,1.63
2022-10-28T13:51:59.780Z,1.80
2022-10-28T13:54:30.818Z,1.88
2022-10-28T13:57:03.323Z,1.95
2022-10-28T13:59:32.998Z,1.60
2022-10-28T14:02:32.319Z,2.47
2022-10-28T14:05:02.872Z,2.17
2022-10-28T14:07:33.965Z,2.20
2022-10-28T14:10:20.163Z,2.30
2022-10-28T14:13:01.218Z,2.00
2022-10-28T14:15:35.825Z,1.77
2022-10-28T14:18:37.407Z,3.03
2022-10-28T14:21:01.657Z,3.50
2022-10-28T14:23:29.302Z,2.97
2022-10-28T14:25:59.982Z,3.28
2022-10-28T14:28:27.405Z,3.45
2022-10-28T14:31:12.955Z,4.15
2022-10-28T14:33:43.444Z,2.60
2022-10-28T14:36:19.981Z,4.95
2022-10-28T14:38:53.428Z,5.05
2022-10-28T14:41:45.205Z,5.20
2022-10-28T14:44:18.509Z,5.28
2022-10-28T14:47:14.638Z,6.20
2022-10-28T14:49:55.770Z,11.77
2022-10-28T14:52:23.189Z,8.02
2022-10-28T14:54:52.686Z,8.05
2022-10-28T14:57:22.771Z,7.22
2022-10-28T14:59:50.168Z,6.43
2022-10-28T15:02:20.777Z,6.55
2022-10-28T15:04:59.318Z,6.13
2022-10-28T15:07:26.687Z,6.25
2022-10-28T15:09:54.479Z,5.90
2022-10-28T15:12:22.776Z,5.55
2022-10-28T15:14:52.242Z,4.78
2022-10-28T15:17:19.556Z,4.25
2022-10-28T15:19:48.825Z,4.80
2022-10-28T15:22:24.003Z,5.28
2022-10-28T15:28:39.121Z,6.40
2022-10-28T15:31:06.693Z,6.28
2022-10-28T15:33:41.053Z,6.65
2022-10-28T15:36:12.654Z,6.60
2022-10-28T15:38:45.224Z,7.05
2022-10-28T15:41:31.099Z,6.07
2022-10-28T15:44:02.321Z,6.05
2022-10-28T15:46:29.843Z,6.47
2022-10-28T15:49:01.440Z,6.10
2022-10-28T15:51:28.873Z,5.45
2022-10-28T15:54:12.005Z,4.95
2022-10-28T15:56:56.510Z,5.13
2022-10-28T15:59:24.640Z,4.97
2022-10-28T16:01:55.986Z,4.65
2022-10-28T16:04:23.704Z,4.70
2022-10-28T16:06:52.214Z,4.43
2022-10-28T16:09:33.069Z,5.00
2022-10-28T16:12:10.574Z,4.75
2022-10-28T16:14:44.439Z,5.90
2022-10-28T16:17:26.880Z,8.95
2022-10-28T16:19:55.401Z,8.52
2022-10-28T16:22:23.670Z,7.68
2022-10-28T16:24:52.036Z,7.30
2022-10-28T16:27:24.559Z,6.88
2022-10-28T16:29:51.943Z,5.95
2022-10-28T16:32:27.980Z,5.70
2022-10-28T16:34:58.865Z,6.10
2022-10-28T16:37:27.728Z,5.78
2022-10-28T16:39:55.202Z,5.95
2022-10-28T16:42:22.550Z,5.90
2022-10-28T16:44:49.950Z,5.13
2022-10-28T16:47:20.875Z,6.78
2022-10-28T16:49:54.487Z,6.60
2022-10-28T16:52:29.260Z,6.07
2022-10-28T16:54:56.865Z,6.18
2022-10-28T16:59:56.690Z,5.32
2022-10-28T17:02:34.813Z,5.00
2022-10-28T17:05:05.047Z,5.05
2022-10-28T17:07:32.385Z,4.28
2022-10-28T17:09:59.714Z,5.43
2022-10-28T17:12:27.429Z,4.70
2022-10-28T17:14:54.976Z,4.30
2022-10-28T17:17:22.369Z,5.30
2022-10-28T17:19:49.665Z,4.45
2022-10-28T17:22:17.193Z,3.65
2022-10-28T17:24:44.573Z,4.47
2022-10-28T17:27:12.946Z,4.57
2022-10-28T17:29:40.518Z,4.20
2022-10-28T17:32:10.986Z,4.18
2022-10-28T17:34:38.389Z,4.90
2022-10-28T17:37:06.074Z,13.07
2022-10-28T17:39:33.932Z,15.48
2022-10-28T17:42:01.287Z,11.20
2022-10-28T17:44:28.657Z,8.38
2022-10-28T17:46:56.010Z,7.07
2022-10-28T17:49:23.312Z,6.68
2022-10-28T17:51:51.493Z,22.92
2022-10-28T17:54:18.867Z,12.38
2022-10-28T17:56:47.023Z,8.52
2022-10-28T17:59:14.401Z,6.32
2022-10-28T18:01:41.880Z,6.28
2022-10-28T18:04:11.554Z,6.95
2022-10-28T18:06:38.853Z,9.27
2022-10-28T18:09:12.700Z,8.95
2022-10-28T18:11:40.832Z,6.80
2022-10-28T18:14:08.154Z,6.47
2022-10-28T18:16:36.199Z,8.02
2022-10-28T18:19:05.150Z,7.30
2022-10-28T18:21:32.616Z,7.80
2022-10-28T18:24:05.762Z,8.23
2022-10-28T18:26:34.502Z,8.13
2022-10-28T18:29:04.831Z,10.15
2022-10-28T18:31:33.063Z,9.38
2022-10-28T18:34:01.142Z,8.73
2022-10-28T18:36:30.724Z,8.05
2022-10-28T18:38:58.249Z,7.70
2022-10-28T18:41:27.318Z,7.57
2022-10-28T18:43:55.445Z,7.55
2022-10-28T18:46:22.894Z,8.05
2022-10-28T18:48:50.318Z,8.07
2022-10-28T18:51:17.816Z,8.43
2022-10-28T18:53:47.290Z,8.00
2022-10-28T18:56:19.315Z,10.50
2022-10-28T18:58:49.261Z,10.80
2022-10-28T19:01:18.069Z,10.52
2022-10-28T19:03:45.504Z,9.55
2022-10-28T19:06:14.863Z,8.63
2022-10-28T19:08:42.343Z,8.77
2022-10-28T19:11:13.464Z,8.70
2022-10-28T19:13:41.438Z,7.22
2022-10-28T19:16:09.517Z,7.35
2022-10-28T19:18:38.334Z,6.45
2022-10-28T19:21:11.077Z,5.65
2022-10-28T19:23:38.570Z,5.97
2022-10-28T19:26:06.792Z,5.88
2022-10-28T19:28:39.412Z,5.32
2022-10-28T19:31:08.975Z,5.30
2022-10-28T19:33:38.353Z,5.55
2022-10-28T19:36:14.359Z,5.30
2022-10-28T19:38:41.706Z,5.53
2022-10-28T19:41:13.607Z,4.70
2022-10-28T19:43:41.220Z,5.25
2022-10-28T19:46:12.943Z,4.75
2022-10-28T19:48:41.427Z,5.85
2022-10-28T19:51:09.564Z,5.43
2022-10-28T19:53:36.918Z,5.57
2022-10-28T19:56:04.768Z,5.82
2022-10-28T19:58:32.432Z,5.38
2022-10-28T20:01:05.421Z,5.78
2022-10-28T20:03:34.787Z,6.18
2022-10-28T20:06:13.666Z,5.30
2022-10-28T20:08:46.315Z,5.72
2022-10-28T20:11:27.386Z,6.00
2022-10-28T20:13:58.428Z,6.22
2022-10-28T20:16:25.940Z,6.00
2022-10-28T20:18:56.872Z,6.28
2022-10-28T20:21:28.613Z,6.07
2022-10-28T20:23:56.599Z,6.13
2022-10-28T20:26:31.299Z,5.80
2022-10-28T20:28:58.758Z,6.45
2022-10-28T20:31:27.231Z,6.53
2022-10-28T20:33:56.752Z,6.82
2022-10-28T20:36:34.729Z,8.00
2022-10-28T20:39:13.385Z,8.43
2022-10-28T20:41:41.232Z,6.85
2022-10-28T20:44:08.786Z,6.60
2022-10-28T20:46:36.207Z,6.45
2022-10-28T20:49:03.904Z,7.15
2022-10-28T20:51:31.813Z,7.60
2022-10-28T20:53:59.231Z,7.88
2022-10-28T20:56:31.275Z,8.88
2022-10-28T20:58:58.716Z,10.63
2022-10-28T21:01:33.548Z,9.43
2022-10-28T21:04:02.884Z,7.55
2022-10-28T21:06:30.435Z,6.18
2022-10-28T21:08:58.240Z,7.18
2022-10-28T21:11:26.076Z,7.05
2022-10-28T21:13:57.993Z,6.90
2022-10-28T21:16:25.840Z,6.32
2022-10-28T21:18:53.318Z,7.25
2022-10-28T21:21:21.012Z,6.95
2022-10-28T21:23:48.345Z,6.55
2022-10-28T21:26:15.759Z,5.60
2022-10-28T21:28:43.198Z,5.68
2022-10-28T21:31:12.238Z,5.60
2022-10-28T21:33:40.162Z,5.05
2022-10-28T21:36:11.972Z,5.25
2022-10-28T21:38:39.379Z,5.22
2022-10-28T21:41:11.602Z,5.20
2022-10-28T21:43:40.199Z,5.60
2022-10-28T21:46:07.768Z,5.20
2022-10-28T21:48:35.666Z,5.10
2022-10-28T21:51:07.225Z,5.25
2022-10-28T21:56:16.588Z,4.90
2022-10-28T21:58:44.702Z,4.80
2022-10-28T22:01:17.534Z,5.30
2022-10-28T22:03:44.970Z,5.00
2022-10-28T22:06:12.377Z,4.68
2022-10-28T22:08:39.692Z,4.65
2022-10-28T22:11:07.815Z,4.50
2022-10-28T22:13:35.330Z,5.85
2022-10-28T22:16:04.688Z,5.72
2022-10-28T22:18:32.902Z,4.70
2022-10-28T22:21:11.852Z,4.47
2022-10-28T22:23:39.312Z,4.50
2022-10-28T22:26:08.396Z,4.10
2022-10-28T22:28:36.062Z,3.92
2022-10-28T22:31:11.853Z,4.57
2022-10-28T22:33:39.914Z,5.18
2022-10-28T22:36:11.957Z,5.20
2022-10-28T22:38:39.401Z,4.68
2022-10-28T22:41:08.278Z,4.05
2022-10-28T22:43:36.107Z,3.42
2022-10-28T22:46:03.640Z,3.85
2022-10-28T22:48:31.134Z,3.63
2022-10-28T22:50:58.611Z,3.65
2022-10-28T22:53:25.991Z,3.58
2022-10-28T22:55:53.765Z,4.20
2022-10-28T22:58:21.530Z,3.42
2022-10-28T23:00:49.020Z,4.00
2022-10-28T23:03:16.500Z,4.38
2022-10-28T23:05:43.902Z,3.50
2022-10-28T23:08:15.441Z,3.72
2022-10-28T23:10:42.824Z,4.25
2022-10-28T23:13:13.675Z,3.67
2022-10-28T23:15:41.005Z,2.95
2022-10-28T23:18:08.349Z,3.67
2022-10-28T23:20:36.913Z,3.55
2022-10-28T23:23:04.300Z,3.60
2022-10-28T23:25:31.664Z,3.35
2022-10-28T23:27:59.195Z,3.30
2022-10-28T23:30:26.713Z,3.30
2022-10-28T23:32:54.088Z,3.40
2022-10-28T23:35:21.411Z,2.97
2022-10-28T23:37:48.763Z,3.25
2022-10-28T23:40:16.182Z,3.70
2022-10-28T23:42:43.530Z,4.30
2022-10-28T23:45:10.860Z,3.50
2022-10-28T23:47:38.214Z,3.67
2022-10-28T23:50:05.746Z,3.47
2022-10-28T23:52:33.554Z,2.97
2022-10-28T23:55:00.873Z,3.25
2022-10-28T23:57:28.180Z,3.22
2022-10-28T23:59:55.504Z,2.92
